Time;durP1;ratioP1;P1;durP2;ratioP2;P2;SDS_P1;SDS_P2;PMS_P1;PMS_P2;Temp;Humidity;BMP_temperature;BMP_pressure;BME280_temperature;BME280_humidity;BME280_pressure;Samples;Min_cycle;Max_cycle;Signal;HPM_P1;HPM_P2
2024/02/10 00:01:27;;;;;;;13.67;5.20;;;13.30;42.90;;;;;;10523274;28;20255;-70
2024/02/10 00:06:31;;;;;;;6.43;4.47;;;13.20;43.20;;;;;;10526243;28;20280;-70
2024/02/10 00:11:34;;;;;;;7.27;4.87;;;13.10;42.70;;;;;;10528642;28;20312;-70
2024/02/10 00:16:39;;;;;;;6.13;4.60;;;13.10;43.00;;;;;;10525799;28;20270;-70
2024/02/10 00:21:45;;;;;;;6.90;4.60;;;13.10;43.10;;;;;;10527547;28;20239;-70
2024/02/10 00:26:48;;;;;;;5.07;3.93;;;13.10;42.90;;;;;;10535392;27;20743;-70
2024/02/10 00:31:54;;;;;;;6.13;4.73;;;13.00;43.10;;;;;;10525565;28;20284;-70
2024/02/10 00:36:57;;;;;;;6.17;4.93;;;13.00;43.40;;;;;;10527812;28;20227;-70
2024/02/10 00:42:01;;;;;;;6.67;4.43;;;12.90;43.10;;;;;;10527541;28;20234;-70
2024/02/10 00:47:09;;;;;;;6.63;5.13;;;12.90;43.40;;;;;;10528460;28;20228;-70
2024/02/10 00:52:17;;;;;;;6.40;4.47;;;12.80;43.60;;;;;;10535299;27;20539;-70
2024/02/10 00:57:20;;;;;;;10.83;4.87;;;12.80;43.40;;;;;;10533066;28;20239;-70
2024/02/10 01:02:24;;;;;;;7.23;4.83;;;12.80;43.60;;;;;;10531025;28;20735;-70
2024/02/10 01:07:30;;;;;;;7.87;4.90;;;12.80;43.70;;;;;;10532933;28;20312;-70
2024/02/10 01:12:33;;;;;;;9.40;4.70;;;12.80;43.50;;;;;;10532154;28;20311;-70
2024/02/10 01:17:37;;;;;;;6.10;4.43;;;12.80;44.10;;;;;;10532429;28;20238;-70
2024/02/10 01:22:41;;;;;;;7.80;4.60;;;12.80;43.50;;;;;;10533829;28;20231;-70
2024/02/10 01:27:46;;;;;;;5.33;4.73;;;12.80;43.30;;;;;;10536149;27;20228;-70
2024/02/10 01:32:50;;;;;;;6.17;4.30;;;12.80;43.30;;;;;;10531297;28;20303;-70
2024/02/10 01:37:55;;;;;;;6.07;4.57;;;12.80;43.50;;;;;;10534940;27;20235;-70
2024/02/10 01:42:59;;;;;;;7.23;4.60;;;12.70;43.10;;;;;;10541551;27;20226;-70
2024/02/10 01:48:05;;;;;;;7.90;4.40;;;12.60;43.40;;;;;;10532273;27;20220;-70
2024/02/10 01:53:08;;;;;;;8.33;5.37;;;12.50;43.70;;;;;;10534688;28;20231;-70
2024/02/10 01:58:13;;;;;;;5.97;4.27;;;12.50;43.50;;;;;;10530739;27;20224;-70
2024/02/10 02:03:18;;;;;;;8.93;5.17;;;12.40;43.70;;;;;;10529936;27;20235;-70
2024/02/10 02:08:21;;;;;;;8.07;4.67;;;12.30;44.00;;;;;;10529388;28;20247;-70
2024/02/10 02:13:24;;;;;;;7.07;3.83;;;12.30;44.10;;;;;;10525553;27;20756;-73
2024/02/10 02:18:29;;;;;;;6.57;4.43;;;12.20;43.20;;;;;;10529818;28;20230;-72
2024/02/10 02:23:34;;;;;;;5.03;4.33;;;12.20;43.20;;;;;;10527185;28;20227;-72
2024/02/10 02:28:42;;;;;;;6.47;4.50;;;12.20;43.40;;;;;;10529252;28;20327;-72
2024/02/10 02:33:45;;;;;;;5.47;4.17;;;12.20;43.10;;;;;;10535757;28;20219;-72
2024/02/10 02:38:50;;;;;;;10.33;4.80;;;12.10;43.00;;;;;;10530461;28;20219;-72
2024/02/10 02:43:53;;;;;;;6.00;4.20;;;12.00;43.10;;;;;;10532940;28;20326;-72
2024/02/10 02:48:56;;;;;;;5.63;4.73;;;11.80;43.40;;;;;;10534946;27;20229;-72
2024/02/10 02:54:01;;;;;;;7.17;4.90;;;11.70;43.80;;;;;;10526231;27;20300;-72
2024/02/10 02:59:05;;;;;;;6.87;4.97;;;11.70;44.10;;;;;;10523093;28;20310;-72
2024/02/10 03:04:08;;;;;;;5.63;4.37;;;11.70;43.90;;;;;;10526878;27;20731;-69
2024/02/10 03:09:13;;;;;;;6.70;4.73;;;11.70;43.90;;;;;;10527469;28;20220;-68
2024/02/10 03:14:17;;;;;;;6.60;4.43;;;11.70;43.90;;;;;;10526728;28;20230;-69
2024/02/10 03:19:20;;;;;;;6.97;4.30;;;11.70;43.50;;;;;;10532716;28;20249;-68
2024/02/10 03:24:24;;;;;;;4.80;4.17;;;11.70;43.40;;;;;;10523829;28;20324;-72
2024/02/10 03:29:28;;;;;;;8.53;4.13;;;11.70;43.40;;;;;;10522088;28;20631;-72
2024/02/10 03:34:31;;;;;;;5.97;4.00;;;11.70;43.40;;;;;;10526093;28;20310;-68
2024/02/10 03:39:36;;;;;;;5.53;3.90;;;11.80;43.30;;;;;;10524929;28;20220;-68
2024/02/10 03:44:40;;;;;;;6.40;4.30;;;11.70;43.30;;;;;;10530307;28;20238;-68
2024/02/10 03:49:43;;;;;;;7.93;4.90;;;11.70;43.40;;;;;;10528925;28;20216;-68
2024/02/10 03:54:52;;;;;;;6.70;4.13;;;11.70;43.50;;;;;;10526294;28;20314;-70
2024/02/10 03:59:55;;;;;;;7.10;4.63;;;11.70;43.70;;;;;;10531104;28;20246;-72
2024/02/10 04:04:58;;;;;;;5.13;4.63;;;11.70;43.50;;;;;;10524642;28;20273;-72
2024/02/10 04:10:04;;;;;;;5.77;4.37;;;11.70;43.70;;;;;;10531847;28;20219;-73
2024/02/10 04:15:11;;;;;;;7.53;4.73;;;11.70;43.70;;;;;;10526007;28;20289;-72
2024/02/10 04:20:19;;;;;;;5.93;4.33;;;11.60;43.50;;;;;;10517733;28;20302;-72
2024/02/10 04:25:23;;;;;;;5.20;4.57;;;11.60;43.80;;;;;;10525858;28;20263;-70
2024/02/10 04:30:27;;;;;;;5.70;4.23;;;11.50;43.70;;;;;;10527244;28;20223;-73
2024/02/10 04:35:30;;;;;;;5.93;4.53;;;11.50;43.50;;;;;;10526062;28;20237;-72
2024/02/10 04:40:35;;;;;;;5.43;4.57;;;11.50;43.50;;;;;;10522231;28;20269;-72
2024/02/10 04:45:38;;;;;;;4.57;3.40;;;11.50;43.60;;;;;;10523033;28;20220;-73
2024/02/10 04:50:42;;;;;;;4.77;3.93;;;11.50;43.50;;;;;;10530864;28;20594;-72
2024/02/10 04:55:46;;;;;;;4.80;4.00;;;11.50;43.40;;;;;;10525452;28;20223;-72
2024/02/10 05:00:49;;;;;;;7.37;3.97;;;11.40;43.30;;;;;;10522800;28;20234;-70
2024/02/10 05:05:53;;;;;;;4.70;4.10;;;11.40;43.20;;;;;;10522563;28;20230;-73
2024/02/10 05:10:57;;;;;;;5.17;4.00;;;11.40;43.00;;;;;;10523643;28;20706;-70
2024/02/10 05:16:00;;;;;;;6.40;4.90;;;11.40;43.20;;;;;;10524075;28;20772;-70
2024/02/10 05:21:05;;;;;;;9.20;5.70;;;11.40;43.00;;;;;;10523915;28;20583;-73
2024/02/10 05:26:10;;;;;;;6.37;4.63;;;11.30;43.00;;;;;;10519206;28;20236;-72
2024/02/10 05:31:13;;;;;;;6.00;4.73;;;11.20;43.30;;;;;;10525243;28;20216;-70
2024/02/10 05:36:16;;;;;;;10.10;6.60;;;11.10;43.40;;;;;;10537659;27;20255;-70
2024/02/10 05:41:22;;;;;;;9.27;5.93;;;11.00;43.50;;;;;;10537746;28;20228;-72
2024/02/10 05:46:27;;;;;;;7.63;6.00;;;10.90;43.80;;;;;;10528770;28;20227;-72
2024/02/10 05:51:38;;;;;;;6.53;4.37;;;10.90;43.50;;;;;;10526617;28;20281;-72
2024/02/10 05:56:44;;;;;;;4.70;4.30;;;10.80;43.60;;;;;;10536102;28;20334;-73
2024/02/10 06:01:48;;;;;;;6.73;4.47;;;10.70;43.90;;;;;;10536421;27;20224;-70
2024/02/10 06:06:52;;;;;;;4.20;3.67;;;10.70;44.00;;;;;;10526055;28;20711;-73
2024/02/10 06:12:04;;;;;;;6.53;5.10;;;10.70;44.30;;;;;;10536398;28;20224;-73
2024/02/10 06:17:08;;;;;;;4.73;4.30;;;10.70;44.30;;;;;;10525248;28;20232;-71
2024/02/10 06:22:11;;;;;;;5.47;4.97;;;10.70;44.10;;;;;;10531636;28;20254;-72
2024/02/10 06:27:18;;;;;;;6.67;5.20;;;10.70;44.00;;;;;;10533021;28;20251;-73
2024/02/10 06:32:21;;;;;;;6.80;5.43;;;10.70;44.10;;;;;;10531129;28;20233;-72
2024/02/10 06:37:25;;;;;;;6.17;5.10;;;10.70;43.90;;;;;;10531820;28;20296;-70
2024/02/10 06:42:35;;;;;;;5.33;4.73;;;10.60;43.80;;;;;;10533911;28;20226;-68
2024/02/10 06:47:38;;;;;;;6.00;4.80;;;10.60;44.00;;;;;;10530204;28;20626;-68
2024/02/10 06:52:44;;;;;;;8.30;5.43;;;10.70;43.90;;;;;;10534317;28;20223;-69
2024/02/10 06:57:52;;;;;;;6.70;5.40;;;10.70;43.70;;;;;;10529455;28;20357;-73
2024/02/10 07:02:57;;;;;;;7.23;5.53;;;10.70;43.90;;;;;;10535460;28;20229;-72
2024/02/10 07:08:01;;;;;;;6.27;4.50;;;10.70;43.60;;;;;;10524216;28;20220;-68
2024/02/10 07:13:07;;;;;;;6.30;5.40;;;10.60;43.70;;;;;;10532540;28;20230;-72
2024/02/10 07:18:11;;;;;;;7.67;5.50;;;10.60;43.90;;;;;;10528855;28;20908;-70
2024/02/10 07:23:14;;;;;;;5.93;4.77;;;10.60;43.70;;;;;;10529412;28;20708;-70
2024/02/10 07:28:21;;;;;;;8.13;5.47;;;10.60;43.50;;;;;;10535271;27;20318;-70
2024/02/10 07:33:24;;;;;;;6.13;5.53;;;10.60;43.70;;;;;;10528789;28;20229;-70
2024/02/10 07:38:27;;;;;;;6.80;5.23;;;10.60;43.70;;;;;;10531088;28;20231;-72
2024/02/10 07:43:32;;;;;;;6.90;5.13;;;10.60;43.60;;;;;;10528370;28;20265;-68
2024/02/10 07:48:37;;;;;;;9.93;6.73;;;10.60;43.90;;;;;;10537742;28;20238;-73
2024/02/10 07:53:45;;;;;;;11.17;8.70;;;10.60;43.80;;;;;;10524062;28;20215;-73
2024/02/10 07:58:49;;;;;;;10.90;7.83;;;10.50;43.70;;;;;;10528213;28;20233;-72
2024/02/10 08:03:54;;;;;;;9.77;8.03;;;10.50;44.10;;;;;;10519796;27;20608;-73
2024/02/10 08:08:58;;;;;;;8.70;7.87;;;10.50;44.20;;;;;;10525789;28;20224;-73
2024/02/10 08:14:03;;;;;;;9.30;7.57;;;10.50;44.40;;;;;;10527591;27;20219;-71
2024/02/10 08:19:06;;;;;;;9.33;7.70;;;10.60;44.50;;;;;;10529324;28;20219;-72
2024/02/10 08:24:10;;;;;;;15.17;13.57;;;10.70;44.40;;;;;;10526568;28;20310;-72
2024/02/10 08:29:14;;;;;;;10.73;9.60;;;10.80;44.40;;;;;;10523233;28;20222;-72
2024/02/10 08:34:19;;;;;;;10.73;9.20;;;10.80;44.70;;;;;;10526907;28;20717;-70
2024/02/10 08:39:23;;;;;;;9.60;7.83;;;10.90;44.70;;;;;;10525894;27;21102;-70
2024/02/10 08:44:29;;;;;;;8.33;7.27;;;10.90;44.60;;;;;;10528112;28;20244;-70
2024/02/10 08:49:32;;;;;;;9.23;7.23;;;11.00;44.80;;;;;;10523725;28;20291;-70
2024/02/10 08:54:36;;;;;;;7.30;6.30;;;11.10;44.60;;;;;;10527163;28;20224;-70
2024/02/10 08:59:45;;;;;;;8.43;7.63;;;11.10;44.60;;;;;;10527336;28;20226;-73
2024/02/10 09:04:49;;;;;;;7.50;6.80;;;11.20;45.00;;;;;;10524172;28;20609;-73
2024/02/10 09:09:52;;;;;;;8.53;6.87;;;11.30;44.80;;;;;;10528639;28;20227;-73
2024/02/10 09:14:57;;;;;;;7.30;6.60;;;11.40;44.70;;;;;;10530356;28;20625;-73
2024/02/10 09:20:00;;;;;;;7.93;6.90;;;11.40;44.80;;;;;;10529791;27;20223;-73
2024/02/10 09:25:04;;;;;;;11.00;7.73;;;11.50;44.80;;;;;;10534254;27;20223;-70
2024/02/10 09:30:11;;;;;;;9.97;8.40;;;11.50;45.00;;;;;;10531026;28;20672;-70
2024/02/10 09:35:15;;;;;;;10.57;9.47;;;11.50;45.20;;;;;;10530399;27;20429;-72
2024/02/10 09:40:30;;;;;;;13.53;11.90;;;11.60;45.00;;;;;;10524718;28;20305;-73
2024/02/10 09:45:36;;;;;;;22.03;19.50;;;11.70;45.40;;;;;;10520201;28;20232;-72
2024/02/10 09:50:39;;;;;;;15.77;12.53;;;11.70;45.60;;;;;;10524491;28;20238;-72
2024/02/10 09:55:43;;;;;;;12.50;8.60;;;11.80;45.50;;;;;;10517408;27;20951;-73
2024/02/10 10:00:49;;;;;;;13.90;12.50;;;11.90;45.40;;;;;;10525103;28;20224;-72
2024/02/10 10:05:55;;;;;;;15.17;11.50;;;11.90;45.60;;;;;;10524317;28;20227;-73
2024/02/10 10:10:58;;;;;;;11.00;9.80;;;12.00;45.50;;;;;;10523688;28;20223;-70
2024/02/10 10:16:05;;;;;;;11.97;10.67;;;12.10;45.60;;;;;;10531599;27;20311;-70
2024/02/10 10:21:10;;;;;;;9.33;8.30;;;12.10;45.70;;;;;;10529303;28;20215;-70
2024/02/10 10:26:14;;;;;;;9.33;7.50;;;12.20;45.60;;;;;;10533337;27;20319;-70
2024/02/10 10:31:20;;;;;;;8.43;7.53;;;12.20;45.60;;;;;;10530037;28;20220;-70
2024/02/10 10:36:28;;;;;;;7.20;6.50;;;12.30;46.00;;;;;;10530277;28;20269;-67
2024/02/10 10:41:34;;;;;;;7.77;6.97;;;12.40;46.20;;;;;;10526788;28;20251;-69
2024/02/10 10:46:39;;;;;;;7.43;6.63;;;12.50;46.70;;;;;;10530352;28;20228;-72
2024/02/10 10:51:51;;;;;;;10.20;7.20;;;12.50;46.40;;;;;;10524920;28;20232;-72
2024/02/10 10:56:55;;;;;;;8.13;7.37;;;12.60;46.30;;;;;;10525053;27;20220;-72
2024/02/10 11:01:59;;;;;;;7.90;7.07;;;12.70;45.70;;;;;;10527886;28;20216;-72
2024/02/10 11:07:09;;;;;;;9.70;6.50;;;12.70;45.90;;;;;;10520647;28;20224;-71
2024/02/10 11:12:17;;;;;;;7.93;7.17;;;12.70;46.10;;;;;;10524630;28;20306;-72
2024/02/10 11:17:22;;;;;;;8.00;7.23;;;12.80;45.90;;;;;;10528358;28;20530;-72
2024/02/10 11:22:26;;;;;;;8.53;7.63;;;12.80;46.00;;;;;;10530373;28;20231;-71
2024/02/10 11:27:30;;;;;;;8.80;7.90;;;12.90;45.90;;;;;;10530122;27;20228;-72
2024/02/10 11:32:36;;;;;;;9.70;7.90;;;12.90;45.90;;;;;;10523566;28;20232;-72
2024/02/10 11:37:39;;;;;;;8.60;7.80;;;13.00;46.10;;;;;;10529846;28;20262;-72
2024/02/10 11:42:43;;;;;;;8.83;7.70;;;13.00;45.90;;;;;;10527879;27;20709;-70
2024/02/10 11:47:53;;;;;;;8.00;7.20;;;13.10;46.10;;;;;;10534859;28;20314;-70
2024/02/10 11:52:59;;;;;;;7.77;7.00;;;13.20;46.70;;;;;;10529602;28;20593;-70
2024/02/10 11:58:04;;;;;;;8.13;7.33;;;13.30;46.20;;;;;;10532278;28;20233;-71
2024/02/10 12:03:08;;;;;;;7.70;6.77;;;13.30;46.20;;;;;;10530525;28;20753;-72
2024/02/10 12:08:11;;;;;;;7.07;6.37;;;13.40;46.20;;;;;;10522326;28;20633;-72
2024/02/10 12:13:19;;;;;;;6.17;5.57;;;13.50;46.10;;;;;;10524065;28;20211;-72
2024/02/10 12:18:25;;;;;;;5.80;5.23;;;13.60;46.10;;;;;;10521406;28;20565;-72
2024/02/10 12:23:29;;;;;;;5.53;4.43;;;13.60;45.90;;;;;;10534556;28;20310;-70
2024/02/10 12:28:35;;;;;;;5.10;4.60;;;13.70;45.50;;;;;;10526400;28;20681;-70
2024/02/10 12:33:42;;;;;;;4.80;3.83;;;13.80;45.20;;;;;;10527254;28;20250;-70
2024/02/10 12:38:46;;;;;;;4.17;3.77;;;13.90;44.90;;;;;;10529541;27;20231;-72
2024/02/10 12:43:53;;;;;;;5.83;3.83;;;14.00;45.00;;;;;;10528471;27;20241;-72
2024/02/10 12:48:57;;;;;;;4.43;4.03;;;14.10;44.70;;;;;;10530045;28;20210;-72
2024/02/10 12:54:01;;;;;;;4.10;3.80;;;14.10;43.60;;;;;;10533204;28;20227;-71
2024/02/10 12:59:07;;;;;;;3.67;3.37;;;14.30;44.00;;;;;;10531850;28;20219;-71
2024/02/10 13:04:11;;;;;;;4.40;4.00;;;14.40;44.00;;;;;;10538498;27;20231;-68
2024/02/10 13:09:15;;;;;;;4.47;4.07;;;14.50;43.90;;;;;;10540016;28;20227;-68
2024/02/10 13:14:18;;;;;;;4.57;4.00;;;14.50;43.70;;;;;;10533525;28;20227;-68
2024/02/10 13:19:22;;;;;;;5.37;4.47;;;14.60;43.40;;;;;;10534711;28;20796;-68
2024/02/10 13:24:29;;;;;;;6.20;5.37;;;14.70;43.10;;;;;;10530485;28;20599;-68
2024/02/10 13:29:32;;;;;;;6.17;5.30;;;14.80;43.40;;;;;;10533246;28;20227;-70
2024/02/10 13:34:45;;;;;;;4.60;4.20;;;14.80;43.10;;;;;;10536299;28;20237;-71
2024/02/10 14:02:07;;;;;;;3.90;3.60;;;15.30;42.70;;;;;;10525187;28;20227;-71
2024/02/10 14:06:58;;;;;;;4.60;4.20;;;15.30;42.90;;;;;;10529512;28;20635;-70
2024/02/10 14:12:01;;;;;;;8.10;4.70;;;15.40;41.80;;;;;;10529960;28;20234;-68
2024/02/10 14:17:14;;;;;;;4.83;4.20;;;15.40;42.10;;;;;;10530639;28;20232;-68
2024/02/10 14:22:21;;;;;;;4.00;3.60;;;15.50;42.20;;;;;;10529444;28;20223;-68
2024/02/10 14:27:29;;;;;;;3.63;3.27;;;15.50;41.90;;;;;;10530235;27;20315;-71
2024/02/10 14:32:40;;;;;;;5.50;4.03;;;15.60;42.30;;;;;;10528329;28;20219;-68
2024/02/10 14:37:57;;;;;;;5.40;3.97;;;15.60;43.20;;;;;;10462226;28;1998829;-68
2024/02/10 14:43:01;;;;;;;5.47;4.40;;;15.60;41.70;;;;;;10532802;27;20598;-69
2024/02/10 14:48:05;;;;;;;4.90;4.50;;;15.70;42.20;;;;;;10529570;28;20314;-68
2024/02/10 14:53:11;;;;;;;4.27;3.87;;;15.70;42.30;;;;;;10528529;28;20234;-69
2024/02/10 14:58:15;;;;;;;4.40;4.00;;;15.70;42.10;;;;;;10538857;28;20231;-71
2024/02/10 15:03:19;;;;;;;4.50;4.10;;;15.70;42.20;;;;;;10527793;27;20782;-71
2024/02/10 15:08:24;;;;;;;4.33;3.93;;;15.70;42.50;;;;;;10529616;28;20227;-72
2024/02/10 15:13:27;;;;;;;5.03;4.53;;;15.80;42.60;;;;;;10530657;28;20705;-72
2024/02/10 15:18:30;;;;;;;4.70;4.30;;;15.80;42.30;;;;;;10529661;28;20363;-72
2024/02/10 15:23:35;;;;;;;5.17;3.80;;;15.80;41.90;;;;;;10531049;28;20228;-72
2024/02/10 15:28:38;;;;;;;4.93;3.70;;;15.80;41.50;;;;;;10529235;27;20735;-72
2024/02/10 15:33:41;;;;;;;4.30;3.90;;;15.70;41.70;;;;;;10527186;28;20227;-73
2024/02/10 15:38:46;;;;;;;3.80;3.50;;;15.70;41.70;;;;;;10528168;28;20235;-74
2024/02/10 15:43:50;;;;;;;5.37;4.07;;;15.60;41.40;;;;;;10532245;27;20226;-72
2024/02/10 15:48:54;;;;;;;4.50;3.90;;;15.60;41.60;;;;;;10529257;28;20237;-72
2024/02/10 15:53:59;;;;;;;3.70;3.30;;;15.60;41.70;;;;;;10534256;28;20278;-72
2024/02/10 15:59:04;;;;;;;3.47;3.17;;;15.50;41.10;;;;;;10528724;28;20228;-73
2024/02/10 16:04:08;;;;;;;4.30;3.90;;;15.50;41.30;;;;;;10531649;28;20238;-72
2024/02/10 16:09:13;;;;;;;5.00;4.50;;;15.40;41.20;;;;;;10527763;28;20219;-69
2024/02/10 16:14:18;;;;;;;6.30;4.33;;;15.30;41.00;;;;;;10530364;28;20242;-68
2024/02/10 16:19:21;;;;;;;4.13;3.77;;;15.20;41.20;;;;;;10527929;28;20231;-69
2024/02/10 16:24:26;;;;;;;4.67;4.23;;;15.20;41.30;;;;;;10528995;28;20235;-68
2024/02/10 16:29:31;;;;;;;4.80;4.40;;;15.20;41.10;;;;;;10522492;28;20261;-68
2024/02/10 16:34:38;;;;;;;5.47;4.47;;;15.10;41.00;;;;;;10531719;27;20219;-68
2024/02/10 16:39:44;;;;;;;5.10;4.60;;;15.00;40.80;;;;;;10523213;28;20227;-74
2024/02/10 16:44:52;;;;;;;6.33;4.53;;;14.90;40.50;;;;;;10529562;28;20276;-73
2024/02/10 16:49:57;;;;;;;4.90;4.40;;;14.70;40.60;;;;;;10524611;28;20641;-73
2024/02/10 16:55:02;;;;;;;5.00;4.60;;;14.60;40.90;;;;;;10526768;28;20230;-72
2024/02/10 17:00:12;;;;;;;6.13;4.97;;;14.50;40.70;;;;;;10531856;28;20219;-71
2024/02/10 17:05:17;;;;;;;6.10;5.60;;;14.40;40.80;;;;;;10523205;27;20253;-72
2024/02/10 17:10:22;;;;;;;9.23;7.20;;;14.30;40.90;;;;;;10523233;28;20261;-72
2024/02/10 17:15:26;;;;;;;7.00;6.40;;;14.20;41.10;;;;;;10531464;28;20242;-71
2024/02/10 17:20:30;;;;;;;6.50;5.90;;;14.10;41.10;;;;;;10523483;28;20228;-69
2024/02/10 17:25:35;;;;;;;6.20;5.57;;;14.10;41.10;;;;;;10528484;28;20653;-68
2024/02/10 17:30:38;;;;;;;5.77;4.10;;;14.00;41.00;;;;;;10531129;28;20247;-71
2024/02/10 17:35:45;;;;;;;4.13;3.73;;;13.90;41.10;;;;;;10532168;28;20226;-71
2024/02/10 17:40:50;;;;;;;4.23;3.83;;;13.90;41.90;;;;;;10534445;27;20235;-68
2024/02/10 17:45:55;;;;;;;4.13;3.73;;;13.90;41.10;;;;;;10530690;28;20224;-69
2024/02/10 17:50:59;;;;;;;4.03;3.63;;;13.90;41.30;;;;;;10527855;28;20277;-68
2024/02/10 17:56:09;;;;;;;3.77;3.47;;;13.90;41.10;;;;;;10530521;28;20230;-71
2024/02/10 18:01:15;;;;;;;3.80;3.50;;;13.80;40.90;;;;;;10526706;28;20231;-71
2024/02/10 18:06:18;;;;;;;3.83;3.53;;;13.80;40.90;;;;;;10524727;27;20673;-72
2024/02/10 18:11:23;;;;;;;3.63;3.33;;;13.70;40.90;;;;;;10528635;28;20235;-72
2024/02/10 18:16:27;;;;;;;9.20;7.50;;;13.70;40.90;;;;;;10526699;28;20241;-69
2024/02/10 18:21:30;;;;;;;6.10;5.03;;;13.70;41.10;;;;;;10527060;28;20250;-69
2024/02/10 18:26:39;;;;;;;5.87;5.03;;;13.60;40.90;;;;;;10541254;28;20238;-68
2024/02/10 18:31:42;;;;;;;5.10;4.60;;;13.60;40.80;;;;;;10529793;28;20633;-68
2024/02/10 18:36:48;;;;;;;4.90;4.40;;;13.50;40.90;;;;;;10534359;28;20223;-68
2024/02/10 18:41:52;;;;;;;4.97;4.47;;;13.50;41.00;;;;;;10527764;28;20341;-68
2024/02/10 18:46:56;;;;;;;5.17;4.67;;;13.50;40.80;;;;;;10530431;27;20717;-69
2024/02/10 18:52:03;;;;;;;5.10;4.60;;;13.50;41.00;;;;;;10534362;28;20243;-68
2024/02/10 18:57:10;;;;;;;4.80;3.87;;;13.40;40.90;;;;;;10529767;27;20231;-69
2024/02/10 19:02:16;;;;;;;4.20;3.80;;;13.40;40.80;;;;;;10524789;28;20605;-68
2024/02/10 19:07:21;;;;;;;4.40;3.63;;;13.40;41.00;;;;;;10529552;27;20315;-72
2024/02/10 19:12:26;;;;;;;3.97;3.57;;;13.40;41.00;;;;;;10525396;28;20301;-71
2024/02/10 19:17:31;;;;;;;4.40;4.00;;;13.30;40.60;;;;;;10527257;28;20239;-71
2024/02/10 19:22:35;;;;;;;4.57;3.70;;;13.30;40.50;;;;;;10522727;28;20338;-71
2024/02/10 19:27:40;;;;;;;4.50;4.10;;;13.30;40.60;;;;;;10524583;27;20264;-72
2024/02/10 19:32:44;;;;;;;4.27;3.87;;;13.20;40.50;;;;;;10523831;27;20224;-71
2024/02/10 19:37:49;;;;;;;4.33;3.80;;;13.20;40.60;;;;;;10521757;27;20242;-72
2024/02/10 19:42:54;;;;;;;5.03;4.57;;;13.20;40.60;;;;;;10523497;28;20324;-68
2024/02/10 19:47:58;;;;;;;4.80;4.40;;;13.10;40.40;;;;;;10525771;28;20237;-68
2024/02/10 19:53:02;;;;;;;5.33;4.70;;;13.10;40.40;;;;;;10525794;27;20224;-69
2024/02/10 19:58:07;;;;;;;4.80;4.40;;;13.00;40.30;;;;;;10516684;28;20228;-69
2024/02/10 20:03:11;;;;;;;4.53;4.13;;;12.90;40.20;;;;;;10521412;28;20739;-68
2024/02/10 20:08:15;;;;;;;4.53;4.10;;;12.90;40.30;;;;;;10526880;28;20244;-69
2024/02/10 20:13:20;;;;;;;5.00;4.50;;;12.80;40.50;;;;;;10525510;27;20238;-68
2024/02/10 20:18:23;;;;;;;5.23;4.73;;;12.70;40.40;;;;;;10518969;28;20227;-69
2024/02/10 20:23:26;;;;;;;5.37;4.60;;;12.70;40.50;;;;;;10523906;28;20634;-69
2024/02/10 20:28:32;;;;;;;4.93;4.40;;;12.70;40.60;;;;;;10522414;27;20231;-68
2024/02/10 20:33:35;;;;;;;5.50;4.97;;;12.60;40.50;;;;;;10519725;28;20232;-69
2024/02/10 20:38:41;;;;;;;5.33;4.87;;;12.60;40.60;;;;;;10522475;28;20709;-68
2024/02/10 20:43:47;;;;;;;5.40;4.90;;;12.60;40.50;;;;;;10524655;27;20218;-68
2024/02/10 20:48:52;;;;;;;4.93;4.53;;;12.50;40.40;;;;;;10519921;28;20231;-72
2024/02/10 20:53:56;;;;;;;5.50;5.00;;;12.50;40.60;;;;;;10523387;28;20223;-72
2024/02/10 20:59:05;;;;;;;4.40;4.00;;;12.40;40.60;;;;;;10523367;27;20223;-72
2024/02/10 21:04:12;;;;;;;4.93;4.50;;;12.40;40.80;;;;;;10518582;28;20227;-72
2024/02/10 21:09:16;;;;;;;5.17;4.67;;;12.30;40.70;;;;;;10526997;28;20231;-69
2024/02/10 21:14:20;;;;;;;5.47;4.97;;;12.30;40.70;;;;;;10529828;28;20865;-68
2024/02/10 21:19:24;;;;;;;5.50;4.77;;;12.30;40.60;;;;;;10531464;28;20702;-69
2024/02/10 21:24:28;;;;;;;4.93;4.53;;;12.20;40.60;;;;;;10526286;28;20235;-69
2024/02/10 21:29:32;;;;;;;6.17;5.57;;;12.20;40.80;;;;;;10530498;28;20269;-68
2024/02/10 21:34:36;;;;;;;5.53;5.03;;;12.20;40.80;;;;;;10532305;27;20231;-68
2024/02/10 21:39:39;;;;;;;5.13;4.70;;;12.10;40.90;;;;;;10536817;28;20332;-68
2024/02/10 21:44:52;;;;;;;4.70;4.30;;;12.10;40.80;;;;;;10536050;28;20223;-72
2024/02/10 21:49:56;;;;;;;6.03;5.10;;;12.00;40.80;;;;;;10532167;28;20269;-72
2024/02/10 21:54:59;;;;;;;4.23;3.83;;;11.90;40.90;;;;;;10527908;28;20224;-71
2024/02/10 22:00:09;;;;;;;4.33;3.93;;;11.90;41.00;;;;;;10533507;28;20233;-71
2024/02/10 22:05:15;;;;;;;5.23;4.43;;;11.90;41.00;;;;;;10530332;28;20713;-72
2024/02/10 22:10:19;;;;;;;3.90;3.57;;;11.80;40.90;;;;;;10528584;28;20768;-71
2024/02/10 22:15:24;;;;;;;4.30;3.47;;;11.80;40.90;;;;;;10534706;27;20233;-71
2024/02/10 22:20:27;;;;;;;4.43;4.00;;;11.80;40.90;;;;;;10533551;27;20258;-71
2024/02/10 22:25:30;;;;;;;4.60;4.20;;;11.70;40.70;;;;;;10527629;27;20230;-71
2024/02/10 22:30:35;;;;;;;5.40;4.17;;;11.60;40.60;;;;;;10532259;28;20227;-71
2024/02/10 22:35:40;;;;;;;4.00;3.63;;;11.40;41.20;;;;;;10530588;28;20238;-71
2024/02/10 22:40:45;;;;;;;5.63;5.03;;;11.40;41.20;;;;;;10533039;28;20234;-71
2024/02/10 22:45:50;;;;;;;5.70;4.87;;;11.30;41.10;;;;;;10531657;28;20887;-71
2024/02/10 22:50:54;;;;;;;8.57;5.93;;;11.20;41.00;;;;;;10539262;28;20228;-72
2024/02/10 22:55:57;;;;;;;6.33;5.73;;;11.20;41.00;;;;;;10530149;27;20231;-72
2024/02/10 23:01:02;;;;;;;7.70;6.00;;;11.10;40.90;;;;;;10527470;28;20377;-68
2024/02/10 23:06:05;;;;;;;5.77;5.27;;;11.00;40.80;;;;;;10531602;28;20231;-68
2024/02/10 23:11:10;;;;;;;5.13;4.67;;;10.80;40.90;;;;;;10530055;27;20302;-68
2024/02/10 23:16:16;;;;;;;6.47;5.77;;;10.70;41.30;;;;;;10532280;28;20231;-69
2024/02/10 23:21:20;;;;;;;8.37;6.13;;;10.70;41.30;;;;;;10528026;27;20223;-68
2024/02/10 23:26:25;;;;;;;6.40;5.80;;;10.70;41.20;;;;;;10529336;28;20228;-68
2024/02/10 23:31:30;;;;;;;7.10;6.37;;;10.70;41.20;;;;;;10527405;28;20223;-68
2024/02/10 23:36:36;;;;;;;6.13;5.63;;;10.60;41.30;;;;;;10527216;28;20801;-71
2024/02/10 23:41:40;;;;;;;5.97;5.37;;;10.60;41.20;;;;;;10535000;28;20276;-71
2024/02/10 23:46:44;;;;;;;5.23;4.73;;;10.50;41.30;;;;;;10535944;27;20235;-72
2024/02/10 23:51:48;;;;;;;5.43;4.90;;;10.40;41.70;;;;;;10526174;28;20223;-72
2024/02/10 23:56:54;;;;;;;4.90;4.40;;;10.40;41.90;;;;;;10527444;28;20247;-68
